sensor_id;sensor_type;location;lat;lon;timestamp;pressure;altitude;pressure_sealevel;temperature;humidity
58739;BME280;44512;53.046;18.604;2023-10-13T00:02:59;101649.08;;;11.62;59.81
58739;BME280;44512;53.046;18.604;2023-10-13T00:13:24;101656.29;;;11.55;60.34
58739;BME280;44512;53.046;18.604;2023-10-13T00:23:52;101658.89;;;11.48;60.55
58739;BME280;44512;53.046;18.604;2023-10-13T00:34:21;101669.56;;;11.27;59.15
58739;BME280;44512;53.046;18.604;2023-10-13T00:44:49;101655.20;;;11.03;58.13
58739;BME280;44512;53.046;18.604;2023-10-13T00:55:19;101655.20;;;10.80;57.87
58739;BME280;44512;53.046;18.604;2023-10-13T01:05:46;101643.27;;;10.66;57.97
58739;BME280;44512;53.046;18.604;2023-10-13T01:16:14;101657.23;;;10.47;57.84
58739;BME280;44512;53.046;18.604;2023-10-13T01:26:43;101665.25;;;10.32;57.92
58739;BME280;44512;53.046;18.604;2023-10-13T01:37:11;101664.95;;;10.19;58.07
58739;BME280;44512;53.046;18.604;2023-10-13T01:47:40;101663.25;;;10.26;60.38
58739;BME280;44512;53.046;18.604;2023-10-13T01:58:15;101649.54;;;10.28;60.58
58739;BME280;44512;53.046;18.604;2023-10-13T02:08:37;101652.80;;;10.07;59.13
58739;BME280;44512;53.046;18.604;2023-10-13T02:19:05;101650.34;;;9.89;58.73
58739;BME280;44512;53.046;18.604;2023-10-13T02:29:33;101656.13;;;9.70;58.27
58739;BME280;44512;53.046;18.604;2023-10-13T02:40:02;101645.02;;;9.56;58.57
58739;BME280;44512;53.046;18.604;2023-10-13T02:50:30;101657.53;;;9.41;58.53
58739;BME280;44512;53.046;18.604;2023-10-13T03:00:58;101640.31;;;9.26;58.59
58739;BME280;44512;53.046;18.604;2023-10-13T03:11:27;101650.59;;;9.14;58.56
58739;BME280;44512;53.046;18.604;2023-10-13T03:21:55;101657.02;;;9.05;58.43
58739;BME280;44512;53.046;18.604;2023-10-13T03:32:24;101651.57;;;8.88;58.45
58739;BME280;44512;53.046;18.604;2023-10-13T03:42:54;101657.64;;;8.82;58.79
58739;BME280;44512;53.046;18.604;2023-10-13T03:53:20;101654.42;;;8.71;59.28
58739;BME280;44512;53.046;18.604;2023-10-13T04:03:49;101665.05;;;8.64;59.59
58739;BME280;44512;53.046;18.604;2023-10-13T04:14:17;101649.84;;;8.55;60.32
58739;BME280;44512;53.046;18.604;2023-10-13T04:24:49;101663.82;;;8.50;61.34
58739;BME280;44512;53.046;18.604;2023-10-13T04:35:15;101661.30;;;8.49;62.43
58739;BME280;44512;53.046;18.604;2023-10-13T04:45:43;101647.10;;;8.47;63.11
58739;BME280;44512;53.046;18.604;2023-10-13T04:56:11;101644.75;;;8.44;63.68
58739;BME280;44512;53.046;18.604;2023-10-13T05:06:39;101637.82;;;8.41;64.11
58739;BME280;44512;53.046;18.604;2023-10-13T05:17:08;101646.08;;;8.40;64.69
58739;BME280;44512;53.046;18.604;2023-10-13T05:27:36;101651.83;;;8.45;65.78
58739;BME280;44512;53.046;18.604;2023-10-13T05:38:05;101635.34;;;8.48;66.26
58739;BME280;44512;53.046;18.604;2023-10-13T05:48:33;101650.50;;;8.49;66.96
58739;BME280;44512;53.046;18.604;2023-10-13T05:59:01;101653.55;;;8.54;67.53
58739;BME280;44512;53.046;18.604;2023-10-13T06:09:30;101653.20;;;8.57;67.98
58739;BME280;44512;53.046;18.604;2023-10-13T06:19:58;101660.28;;;8.58;68.35
58739;BME280;44512;53.046;18.604;2023-10-13T06:30:27;101651.70;;;8.63;68.92
58739;BME280;44512;53.046;18.604;2023-10-13T06:40:55;101650.37;;;8.67;69.21
58739;BME280;44512;53.046;18.604;2023-10-13T06:51:23;101681.95;;;8.74;69.55
58739;BME280;44512;53.046;18.604;2023-10-13T07:01:52;101663.05;;;8.82;70.05
58739;BME280;44512;53.046;18.604;2023-10-13T07:12:21;101656.84;;;8.90;70.79
58739;BME280;44512;53.046;18.604;2023-10-13T07:22:50;101646.04;;;9.06;71.37
58739;BME280;44512;53.046;18.604;2023-10-13T07:33:17;101635.41;;;9.21;72.51
58739;BME280;44512;53.046;18.604;2023-10-13T07:43:46;101633.36;;;9.39;73.56
58739;BME280;44512;53.046;18.604;2023-10-13T07:54:14;101637.74;;;9.57;74.39
58739;BME280;44512;53.046;18.604;2023-10-13T08:04:42;101626.20;;;9.71;74.90
58739;BME280;44512;53.046;18.604;2023-10-13T08:15:11;101591.87;;;9.88;75.49
58739;BME280;44512;53.046;18.604;2023-10-13T08:25:40;101562.88;;;10.05;75.79
58739;BME280;44512;53.046;18.604;2023-10-13T08:36:08;101561.77;;;10.22;76.37
58739;BME280;44512;53.046;18.604;2023-10-13T08:46:38;101566.45;;;10.36;76.87
58739;BME280;44512;53.046;18.604;2023-10-13T08:57:05;101562.62;;;10.54;77.29
58739;BME280;44512;53.046;18.604;2023-10-13T09:07:33;101558.64;;;10.64;77.53
58739;BME280;44512;53.046;18.604;2023-10-13T09:18:01;101565.53;;;10.75;77.91
58739;BME280;44512;53.046;18.604;2023-10-13T09:28:30;101562.00;;;10.89;78.40
58739;BME280;44512;53.046;18.604;2023-10-13T09:38:58;101551.03;;;11.06;79.12
58739;BME280;44512;53.046;18.604;2023-10-13T09:49:29;101526.67;;;11.20;79.84
58739;BME280;44512;53.046;18.604;2023-10-13T10:00:08;101514.45;;;11.39;80.48
58739;BME280;44512;53.046;18.604;2023-10-13T10:10:27;101486.78;;;11.59;80.83
58739;BME280;44512;53.046;18.604;2023-10-13T10:21:02;101468.88;;;11.79;81.33
58739;BME280;44512;53.046;18.604;2023-10-13T10:31:31;101455.95;;;11.96;81.68
58739;BME280;44512;53.046;18.604;2023-10-13T10:41:48;101438.60;;;12.12;82.03
58739;BME280;44512;53.046;18.604;2023-10-13T10:57:29;101412.08;;;12.35;82.36
58739;BME280;44512;53.046;18.604;2023-10-13T11:07:58;101392.03;;;12.58;82.71
58739;BME280;44512;53.046;18.604;2023-10-13T11:18:30;101385.25;;;12.75;83.09
58739;BME280;44512;53.046;18.604;2023-10-13T11:28:54;101356.32;;;12.95;83.37
58739;BME280;44512;53.046;18.604;2023-10-13T11:39:23;101337.85;;;13.19;83.73
58739;BME280;44512;53.046;18.604;2023-10-13T11:49:51;101319.33;;;13.42;83.74
58739;BME280;44512;53.046;18.604;2023-10-13T12:00:19;101313.12;;;13.62;83.83
58739;BME280;44512;53.046;18.604;2023-10-13T12:10:48;101323.41;;;13.86;83.71
58739;BME280;44512;53.046;18.604;2023-10-13T12:21:16;101317.56;;;14.02;83.58
58739;BME280;44512;53.046;18.604;2023-10-13T12:31:45;101281.13;;;14.17;83.78
58739;BME280;44512;53.046;18.604;2023-10-13T12:42:13;101268.13;;;14.32;84.51
58739;BME280;44512;53.046;18.604;2023-10-13T12:52:41;101252.59;;;14.46;84.14
58739;BME280;44512;53.046;18.604;2023-10-13T13:03:10;101231.63;;;14.59;84.51
58739;BME280;44512;53.046;18.604;2023-10-13T13:13:38;101215.03;;;14.68;84.66
58739;BME280;44512;53.046;18.604;2023-10-13T13:24:07;101200.12;;;14.77;85.08
58739;BME280;44512;53.046;18.604;2023-10-13T13:34:34;101177.63;;;14.88;85.33
58739;BME280;44512;53.046;18.604;2023-10-13T13:45:03;101145.91;;;15.00;85.47
58739;BME280;44512;53.046;18.604;2023-10-13T13:55:33;101122.34;;;15.13;85.64
58739;BME280;44512;53.046;18.604;2023-10-13T14:06:00;101111.34;;;15.26;85.55
58739;BME280;44512;53.046;18.604;2023-10-13T14:16:28;101106.23;;;15.36;85.34
58739;BME280;44512;53.046;18.604;2023-10-13T14:26:58;101084.74;;;15.46;85.34
58739;BME280;44512;53.046;18.604;2023-10-13T14:37:25;101073.52;;;15.54;85.23
58739;BME280;44512;53.046;18.604;2023-10-13T14:47:53;101042.20;;;15.63;84.74
58739;BME280;44512;53.046;18.604;2023-10-13T14:58:21;101033.24;;;15.75;84.86
58739;BME280;44512;53.046;18.604;2023-10-13T15:08:53;101009.47;;;15.82;84.66
58739;BME280;44512;53.046;18.604;2023-10-13T15:19:18;101002.02;;;15.89;84.50
58739;BME280;44512;53.046;18.604;2023-10-13T15:29:47;100991.84;;;15.96;83.95
58739;BME280;44512;53.046;18.604;2023-10-13T15:40:15;100980.86;;;16.03;83.39
58739;BME280;44512;53.046;18.604;2023-10-13T15:50:43;100961.02;;;16.07;82.88
58739;BME280;44512;53.046;18.604;2023-10-13T16:01:13;100964.13;;;16.11;82.53
58739;BME280;44512;53.046;18.604;2023-10-13T16:11:43;100934.85;;;16.18;82.16
58739;BME280;44512;53.046;18.604;2023-10-13T16:22:08;100948.40;;;16.25;81.76
58739;BME280;44512;53.046;18.604;2023-10-13T16:32:37;100927.76;;;16.29;81.51
58739;BME280;44512;53.046;18.604;2023-10-13T16:43:05;100923.47;;;16.33;81.37
58739;BME280;44512;53.046;18.604;2023-10-13T16:53:34;100919.21;;;16.37;81.25
58739;BME280;44512;53.046;18.604;2023-10-13T17:04:02;100904.73;;;16.36;81.38
58739;BME280;44512;53.046;18.604;2023-10-13T17:14:30;100884.45;;;16.44;81.30
58739;BME280;44512;53.046;18.604;2023-10-13T17:24:59;100868.76;;;16.51;81.12
58739;BME280;44512;53.046;18.604;2023-10-13T17:35:27;100864.62;;;16.60;80.83
58739;BME280;44512;53.046;18.604;2023-10-13T17:45:55;100850.46;;;16.63;80.77
58739;BME280;44512;53.046;18.604;2023-10-13T17:56:24;100837.52;;;16.71;80.64
58739;BME280;44512;53.046;18.604;2023-10-13T18:06:52;100819.38;;;16.76;80.59
58739;BME280;44512;53.046;18.604;2023-10-13T18:17:20;100821.14;;;16.82;80.42
58739;BME280;44512;53.046;18.604;2023-10-13T18:27:49;100796.19;;;16.90;80.22
58739;BME280;44512;53.046;18.604;2023-10-13T18:38:17;100798.78;;;16.97;79.98
58739;BME280;44512;53.046;18.604;2023-10-13T18:48:45;100794.24;;;17.03;79.70
58739;BME280;44512;53.046;18.604;2023-10-13T18:59:14;100781.51;;;17.08;79.35
58739;BME280;44512;53.046;18.604;2023-10-13T19:09:43;100770.93;;;17.12;79.13
58739;BME280;44512;53.046;18.604;2023-10-13T19:20:11;100774.49;;;17.12;78.87
58739;BME280;44512;53.046;18.604;2023-10-13T19:30:40;100774.59;;;17.17;78.38
58739;BME280;44512;53.046;18.604;2023-10-13T19:41:14;100766.49;;;17.23;77.91
58739;BME280;44512;53.046;18.604;2023-10-13T19:51:36;100762.20;;;17.27;77.56
58739;BME280;44512;53.046;18.604;2023-10-13T20:02:04;100734.95;;;17.32;77.00
58739;BME280;44512;53.046;18.604;2023-10-13T20:12:32;100740.52;;;17.37;76.55
58739;BME280;44512;53.046;18.604;2023-10-13T20:23:01;100730.23;;;17.44;76.03
58739;BME280;44512;53.046;18.604;2023-10-13T20:33:29;100731.41;;;17.48;75.51
58739;BME280;44512;53.046;18.604;2023-10-13T20:43:57;100728.26;;;17.56;74.95
58739;BME280;44512;53.046;18.604;2023-10-13T20:54:26;100721.78;;;17.62;74.33
58739;BME280;44512;53.046;18.604;2023-10-13T21:04:54;100731.27;;;17.71;73.59
58739;BME280;44512;53.046;18.604;2023-10-13T21:15:23;100696.96;;;17.81;73.07
58739;BME280;44512;53.046;18.604;2023-10-13T21:25:51;100671.58;;;17.85;72.73
58739;BME280;44512;53.046;18.604;2023-10-13T21:36:23;100664.76;;;17.88;72.41
58739;BME280;44512;53.046;18.604;2023-10-13T21:46:48;100644.61;;;17.94;71.88
58739;BME280;44512;53.046;18.604;2023-10-13T21:57:16;100640.04;;;18.00;71.08
58739;BME280;44512;53.046;18.604;2023-10-13T22:07:44;100625.60;;;18.04;70.42
58739;BME280;44512;53.046;18.604;2023-10-13T22:18:13;100623.98;;;18.08;69.89
58739;BME280;44512;53.046;18.604;2023-10-13T22:28:42;100613.63;;;18.10;69.40
58739;BME280;44512;53.046;18.604;2023-10-13T22:39:09;100601.31;;;18.13;69.02
58739;BME280;44512;53.046;18.604;2023-10-13T22:49:38;100600.49;;;18.12;68.82
58739;BME280;44512;53.046;18.604;2023-10-13T23:00:07;100591.19;;;18.13;68.70
58739;BME280;44512;53.046;18.604;2023-10-13T23:10:35;100575.90;;;18.17;68.44
58739;BME280;44512;53.046;18.604;2023-10-13T23:21:03;100571.58;;;18.21;68.27
58739;BME280;44512;53.046;18.604;2023-10-13T23:31:31;100554.68;;;18.30;67.86
58739;BME280;44512;53.046;18.604;2023-10-13T23:42:00;100543.22;;;18.33;67.57
58739;BME280;44512;53.046;18.604;2023-10-13T23:52:28;100532.82;;;18.35;67.32
